sensor_id;sensor_type;location;lat;lon;timestamp;pressure;altitude;pressure_sealevel;temperature;humidity
81704;BME280;71117;52.352;4.808;2024-03-02T00:00:57;99857.66;;;8.30;79.34
81704;BME280;71117;52.352;4.808;2024-03-02T00:03:22;99851.44;;;8.23;80.54
81704;BME280;71117;52.352;4.808;2024-03-02T00:05:50;99856.50;;;8.05;82.63
81704;BME280;71117;52.352;4.808;2024-03-02T00:08:23;99839.66;;;7.90;84.25
81704;BME280;71117;52.352;4.808;2024-03-02T00:10:50;99843.03;;;7.79;85.37
81704;BME280;71117;52.352;4.808;2024-03-02T00:13:15;99863.09;;;7.69;85.90
81704;BME280;71117;52.352;4.808;2024-03-02T00:15:52;99873.44;;;7.60;87.34
81704;BME280;71117;52.352;4.808;2024-03-02T00:18:18;99877.66;;;7.47;89.25
81704;BME280;71117;52.352;4.808;2024-03-02T00:20:44;99868.69;;;7.33;90.32
81704;BME280;71117;52.352;4.808;2024-03-02T00:23:15;99871.06;;;7.18;92.25
81704;BME280;71117;52.352;4.808;2024-03-02T00:25:43;99876.16;;;7.07;93.60
81704;BME280;71117;52.352;4.808;2024-03-02T00:30:58;99862.75;;;6.88;95.94
81704;BME280;71117;52.352;4.808;2024-03-02T00:33:26;99868.69;;;6.78;96.39
81704;BME280;71117;52.352;4.808;2024-03-02T00:35:52;99880.84;;;6.73;97.04
81704;BME280;71117;52.352;4.808;2024-03-02T00:38:17;99886.06;;;6.72;97.92
81704;BME280;71117;52.352;4.808;2024-03-02T00:40:43;99885.16;;;6.68;98.33
81704;BME280;71117;52.352;4.808;2024-03-02T00:45:56;99863.94;;;6.56;99.00
81704;BME280;71117;52.352;4.808;2024-03-02T00:48:22;99870.91;;;6.54;99.28
81704;BME280;71117;52.352;4.808;2024-03-02T00:50:52;99880.41;;;6.49;99.63
81704;BME280;71117;52.352;4.808;2024-03-02T00:53:21;99880.41;;;6.49;99.57
81704;BME280;71117;52.352;4.808;2024-03-02T00:55:49;99890.88;;;6.47;100.00
81704;BME280;71117;52.352;4.808;2024-03-02T00:58:15;99893.50;;;6.47;99.80
81704;BME280;71117;52.352;4.808;2024-03-02T01:00:40;99884.72;;;6.45;99.76
81704;BME280;71117;52.352;4.808;2024-03-02T01:03:05;99895.97;;;6.40;99.89
81704;BME280;71117;52.352;4.808;2024-03-02T01:05:33;99888.91;;;6.35;99.81
81704;BME280;71117;52.352;4.808;2024-03-02T01:07:58;99895.91;;;6.35;99.90
81704;BME280;71117;52.352;4.808;2024-03-02T01:10:23;99905.44;;;6.31;100.00
81704;BME280;71117;52.352;4.808;2024-03-02T01:12:48;99897.59;;;6.33;100.00
81704;BME280;71117;52.352;4.808;2024-03-02T01:15:14;99898.34;;;6.26;100.00
81704;BME280;71117;52.352;4.808;2024-03-02T01:17:39;99907.16;;;6.29;100.00
81704;BME280;71117;52.352;4.808;2024-03-02T01:20:08;99896.59;;;6.26;100.00
81704;BME280;71117;52.352;4.808;2024-03-02T01:22:33;99893.00;;;6.21;100.00
81704;BME280;71117;52.352;4.808;2024-03-02T01:24:58;99892.16;;;6.22;100.00
81704;BME280;71117;52.352;4.808;2024-03-02T01:27:23;99890.28;;;6.17;100.00
81704;BME280;71117;52.352;4.808;2024-03-02T01:29:49;99889.41;;;6.16;100.00
81704;BME280;71117;52.352;4.808;2024-03-02T01:32:14;99885.88;;;6.14;100.00
81704;BME280;71117;52.352;4.808;2024-03-02T01:34:40;99878.88;;;6.13;100.00
81704;BME280;71117;52.352;4.808;2024-03-02T01:37:06;99867.47;;;6.11;100.00
81704;BME280;71117;52.352;4.808;2024-03-02T01:39:31;99868.31;;;6.08;100.00
81704;BME280;71117;52.352;4.808;2024-03-02T01:41:56;99876.09;;;6.05;100.00
81704;BME280;71117;52.352;4.808;2024-03-02T01:44:22;99886.53;;;6.04;99.73
81704;BME280;71117;52.352;4.808;2024-03-02T01:46:47;99898.69;;;6.00;99.38
81704;BME280;71117;52.352;4.808;2024-03-02T01:49:12;99912.75;;;6.04;99.64
81704;BME280;71117;52.352;4.808;2024-03-02T01:51:37;99914.47;;;6.02;99.29
81704;BME280;71117;52.352;4.808;2024-03-02T01:54:03;99925.75;;;5.99;99.55
81704;BME280;71117;52.352;4.808;2024-03-02T01:56:28;99937.16;;;6.01;99.09
81704;BME280;71117;52.352;4.808;2024-03-02T01:58:54;99934.47;;;5.98;98.66
81704;BME280;71117;52.352;4.808;2024-03-02T02:01:19;99926.69;;;6.01;98.38
81704;BME280;71117;52.352;4.808;2024-03-02T02:03:44;99924.84;;;5.97;97.94
81704;BME280;71117;52.352;4.808;2024-03-02T02:06:10;99921.34;;;5.97;97.90
81704;BME280;71117;52.352;4.808;2024-03-02T02:08:37;99918.72;;;5.97;97.46
81704;BME280;71117;52.352;4.808;2024-03-02T02:11:02;99924.88;;;5.99;97.78
81704;BME280;71117;52.352;4.808;2024-03-02T02:13:28;99938.81;;;5.98;98.17
81704;BME280;71117;52.352;4.808;2024-03-02T02:15:53;99934.41;;;5.95;98.03
81704;BME280;71117;52.352;4.808;2024-03-02T02:18:18;99923.84;;;5.92;98.10
81704;BME280;71117;52.352;4.808;2024-03-02T02:20:43;99925.66;;;5.95;98.10
81704;BME280;71117;52.352;4.808;2024-03-02T02:23:09;99916.88;;;5.93;97.96
81704;BME280;71117;52.352;4.808;2024-03-02T02:25:35;99928.25;;;5.95;98.32
81704;BME280;71117;52.352;4.808;2024-03-02T02:28:00;99930.88;;;5.95;98.35
81704;BME280;71117;52.352;4.808;2024-03-02T02:30:30;99935.31;;;5.97;98.59
81704;BME280;71117;52.352;4.808;2024-03-02T02:32:56;99926.59;;;5.98;98.50
81704;BME280;71117;52.352;4.808;2024-03-02T02:35:22;99933.66;;;6.01;98.61
81704;BME280;71117;52.352;4.808;2024-03-02T02:37:49;99936.34;;;6.05;98.66
81704;BME280;71117;52.352;4.808;2024-03-02T02:40:16;99931.16;;;6.07;98.84
81704;BME280;71117;52.352;4.808;2024-03-02T02:42:41;99920.72;;;6.10;98.90
81704;BME280;71117;52.352;4.808;2024-03-02T02:45:07;99930.34;;;6.11;98.77
81704;BME280;71117;52.352;4.808;2024-03-02T02:47:32;99931.28;;;6.13;98.96
81704;BME280;71117;52.352;4.808;2024-03-02T02:50:01;99926.94;;;6.14;98.60
81704;BME280;71117;52.352;4.808;2024-03-02T02:52:32;99926.97;;;6.17;98.46
81704;BME280;71117;52.352;4.808;2024-03-02T02:54:58;99939.25;;;6.18;98.68
81704;BME280;71117;52.352;4.808;2024-03-02T02:57:23;99935.78;;;6.19;98.53
81704;BME280;71117;52.352;4.808;2024-03-02T02:59:49;99940.09;;;6.17;98.29
81704;BME280;71117;52.352;4.808;2024-03-02T03:02:14;99938.41;;;6.19;98.28
81704;BME280;71117;52.352;4.808;2024-03-02T03:04:40;99934.91;;;6.20;97.88
81704;BME280;71117;52.352;4.808;2024-03-02T03:07:05;99933.16;;;6.19;97.58
81704;BME280;71117;52.352;4.808;2024-03-02T03:09:30;99945.31;;;6.17;97.55
81704;BME280;71117;52.352;4.808;2024-03-02T03:11:56;99930.47;;;6.17;97.45
81704;BME280;71117;52.352;4.808;2024-03-02T03:14:21;99944.44;;;6.16;97.57
81704;BME280;71117;52.352;4.808;2024-03-02T03:16:46;99945.31;;;6.17;97.30
81704;BME280;71117;52.352;4.808;2024-03-02T03:19:13;99934.91;;;6.20;97.30
81704;BME280;71117;52.352;4.808;2024-03-02T03:21:39;99936.56;;;6.16;98.14
81704;BME280;71117;52.352;4.808;2024-03-02T03:24:04;99937.44;;;6.15;97.76
81704;BME280;71117;52.352;4.808;2024-03-02T03:26:29;99940.06;;;6.15;97.65
81704;BME280;71117;52.352;4.808;2024-03-02T03:28:57;99939.25;;;6.18;97.70
81704;BME280;71117;52.352;4.808;2024-03-02T03:31:23;99940.97;;;6.17;97.58
81704;BME280;71117;52.352;4.808;2024-03-02T03:33:49;99946.91;;;6.08;97.25
81704;BME280;71117;52.352;4.808;2024-03-02T03:36:14;99953.00;;;6.07;97.47
81704;BME280;71117;52.352;4.808;2024-03-02T03:38:40;99945.06;;;6.03;97.48
81704;BME280;71117;52.352;4.808;2024-03-02T03:41:05;99957.25;;;6.01;97.36
81704;BME280;71117;52.352;4.808;2024-03-02T03:43:30;99959.88;;;6.01;97.65
81704;BME280;71117;52.352;4.808;2024-03-02T03:45:56;99950.28;;;6.01;97.55
81704;BME280;71117;52.352;4.808;2024-03-02T03:48:21;99952.84;;;6.00;97.32
81704;BME280;71117;52.352;4.808;2024-03-02T03:50:47;99953.56;;;5.93;97.42
81704;BME280;71117;52.352;4.808;2024-03-02T03:53:13;99954.31;;;5.89;97.55
81704;BME280;71117;52.352;4.808;2024-03-02T03:55:40;99969.88;;;5.81;98.06
81704;BME280;71117;52.352;4.808;2024-03-02T03:58:05;99970.72;;;5.80;98.13
81704;BME280;71117;52.352;4.808;2024-03-02T04:00:30;99970.63;;;5.77;98.06
81704;BME280;71117;52.352;4.808;2024-03-02T04:02:55;99967.84;;;5.69;98.48
81704;BME280;71117;52.352;4.808;2024-03-02T04:05:21;99971.22;;;5.64;98.66
81704;BME280;71117;52.352;4.808;2024-03-02T04:07:47;99969.38;;;5.60;99.01
81704;BME280;71117;52.352;4.808;2024-03-02T04:10:12;99968.47;;;5.57;98.49
81704;BME280;71117;52.352;4.808;2024-03-02T04:12:38;99972.06;;;5.63;99.40
81704;BME280;71117;52.352;4.808;2024-03-02T04:15:04;99971.31;;;5.68;99.17
81704;BME280;71117;52.352;4.808;2024-03-02T04:17:32;99977.34;;;5.64;98.71
81704;BME280;71117;52.352;4.808;2024-03-02T04:19:57;99982.59;;;5.66;98.59
81704;BME280;71117;52.352;4.808;2024-03-02T04:22:23;99976.59;;;5.70;98.58
81704;BME280;71117;52.352;4.808;2024-03-02T04:24:48;99988.84;;;5.72;98.61
81704;BME280;71117;52.352;4.808;2024-03-02T04:27:14;99986.19;;;5.69;98.26
81704;BME280;71117;52.352;4.808;2024-03-02T04:29:39;99986.03;;;5.63;98.51
81704;BME280;71117;52.352;4.808;2024-03-02T04:32:04;99987.84;;;5.66;98.12
81704;BME280;71117;52.352;4.808;2024-03-02T04:34:30;99984.41;;;5.68;98.00
81704;BME280;71117;52.352;4.808;2024-03-02T04:36:55;99981.72;;;5.65;98.50
81704;BME280;71117;52.352;4.808;2024-03-02T04:39:20;99981.69;;;5.64;98.23
81704;BME280;71117;52.352;4.808;2024-03-02T04:41:46;99981.53;;;5.56;98.76
81704;BME280;71117;52.352;4.808;2024-03-02T04:44:11;99982.28;;;5.52;98.55
81704;BME280;71117;52.352;4.808;2024-03-02T04:46:36;99989.00;;;5.41;99.29
81704;BME280;71117;52.352;4.808;2024-03-02T04:49:01;99992.31;;;5.34;99.21
81704;BME280;71117;52.352;4.808;2024-03-02T04:51:27;100001.00;;;5.32;99.47
81704;BME280;71117;52.352;4.808;2024-03-02T04:53:52;99993.22;;;5.34;99.72
81704;BME280;71117;52.352;4.808;2024-03-02T04:56:17;100001.78;;;5.28;99.50
81704;BME280;71117;52.352;4.808;2024-03-02T04:59:05;100002.53;;;5.23;99.86
81704;BME280;71117;52.352;4.808;2024-03-02T05:01:31;100002.41;;;5.18;99.76
81704;BME280;71117;52.352;4.808;2024-03-02T05:03:56;100011.88;;;5.13;100.00
81704;BME280;71117;52.352;4.808;2024-03-02T05:06:22;100022.22;;;5.10;100.00
81704;BME280;71117;52.352;4.808;2024-03-02T05:08:47;100016.94;;;5.07;100.00
81704;BME280;71117;52.352;4.808;2024-03-02T05:11:13;100026.50;;;5.05;100.00
81704;BME280;71117;52.352;4.808;2024-03-02T05:13:57;100019.56;;;5.07;100.00
81704;BME280;71117;52.352;4.808;2024-03-02T05:16:22;100022.94;;;5.03;100.00
81704;BME280;71117;52.352;4.808;2024-03-02T05:18:47;100028.97;;;5.00;100.00
81704;BME280;71117;52.352;4.808;2024-03-02T05:21:12;100025.47;;;5.00;100.00
81704;BME280;71117;52.352;4.808;2024-03-02T05:23:38;100018.50;;;5.00;100.00
81704;BME280;71117;52.352;4.808;2024-03-02T05:26:04;100025.41;;;4.98;100.00
81704;BME280;71117;52.352;4.808;2024-03-02T05:28:29;100035.06;;;4.99;100.00
81704;BME280;71117;52.352;4.808;2024-03-02T05:30:54;100029.84;;;4.99;100.00
81704;BME280;71117;52.352;4.808;2024-03-02T05:33:20;100028.09;;;5.00;100.00
81704;BME280;71117;52.352;4.808;2024-03-02T05:35:47;100027.97;;;4.95;100.00
81704;BME280;71117;52.352;4.808;2024-03-02T05:38:15;100036.72;;;4.97;100.00
81704;BME280;71117;52.352;4.808;2024-03-02T05:40:40;100046.28;;;4.95;100.00
81704;BME280;71117;52.352;4.808;2024-03-02T05:43:05;100046.28;;;4.95;100.00
81704;BME280;71117;52.352;4.808;2024-03-02T05:45:30;100046.44;;;5.01;100.00
81704;BME280;71117;52.352;4.808;2024-03-02T05:47:56;100043.13;;;5.09;100.00
81704;BME280;71117;52.352;4.808;2024-03-02T05:50:21;100051.16;;;5.15;99.99
81704;BME280;71117;52.352;4.808;2024-03-02T05:52:46;100059.22;;;5.22;99.62
81704;BME280;71117;52.352;4.808;2024-03-02T05:55:12;100054.97;;;5.27;99.59
81704;BME280;71117;52.352;4.808;2024-03-02T05:57:37;100057.66;;;5.30;99.25
81704;BME280;71117;52.352;4.808;2024-03-02T06:00:08;100059.53;;;5.35;99.16
81704;BME280;71117;52.352;4.808;2024-03-02T06:02:34;100057.75;;;5.34;98.96
81704;BME280;71117;52.352;4.808;2024-03-02T06:05:00;100056.94;;;5.36;98.22
81704;BME280;71117;52.352;4.808;2024-03-02T06:07:25;100044.84;;;5.41;97.96
81704;BME280;71117;52.352;4.808;2024-03-02T06:09:51;100048.47;;;5.46;97.98
81704;BME280;71117;52.352;4.808;2024-03-02T06:12:18;100057.25;;;5.48;97.84
81704;BME280;71117;52.352;4.808;2024-03-02T06:14:43;100051.22;;;5.51;97.29
81704;BME280;71117;52.352;4.808;2024-03-02T06:17:08;100057.25;;;5.48;97.35
81704;BME280;71117;52.352;4.808;2024-03-02T06:19:34;100057.34;;;5.51;96.95
81704;BME280;71117;52.352;4.808;2024-03-02T06:21:59;100062.56;;;5.51;96.61
81704;BME280;71117;52.352;4.808;2024-03-02T06:24:24;100058.28;;;5.55;96.26
81704;BME280;71117;52.352;4.808;2024-03-02T06:26:51;100059.06;;;5.51;96.54
81704;BME280;71117;52.352;4.808;2024-03-02T06:29:17;100066.03;;;5.50;95.97
81704;BME280;71117;52.352;4.808;2024-03-02T06:31:42;100062.56;;;5.51;95.59
81704;BME280;71117;52.352;4.808;2024-03-02T06:34:07;100063.50;;;5.55;95.64
81704;BME280;71117;52.352;4.808;2024-03-02T06:36:33;100061.78;;;5.55;94.91
81704;BME280;71117;52.352;4.808;2024-03-02T06:38:59;100070.56;;;5.56;94.86
81704;BME280;71117;52.352;4.808;2024-03-02T06:41:25;100071.19;;;5.47;95.25
81704;BME280;71117;52.352;4.808;2024-03-02T06:43:51;100072.84;;;5.44;95.21
81704;BME280;71117;52.352;4.808;2024-03-02T06:46:24;100071.06;;;5.43;94.86
81704;BME280;71117;52.352;4.808;2024-03-02T06:48:49;100076.44;;;5.47;94.58
81704;BME280;71117;52.352;4.808;2024-03-02T06:51:15;100087.75;;;5.46;95.10
81704;BME280;71117;52.352;4.808;2024-03-02T06:53:41;100084.44;;;5.53;94.67
81704;BME280;71117;52.352;4.808;2024-03-02T06:56:07;100072.44;;;5.62;93.80
81704;BME280;71117;52.352;4.808;2024-03-02T06:58:33;100080.31;;;5.63;93.41
81704;BME280;71117;52.352;4.808;2024-03-02T07:00:58;100082.09;;;5.64;93.23
81704;BME280;71117;52.352;4.808;2024-03-02T07:03:25;100086.31;;;5.59;93.27
81704;BME280;71117;52.352;4.808;2024-03-02T07:05:51;100082.22;;;5.69;92.31
81704;BME280;71117;52.352;4.808;2024-03-02T07:08:16;100078.72;;;5.70;92.30
81704;BME280;71117;52.352;4.808;2024-03-02T07:10:41;100094.72;;;5.80;92.62
81704;BME280;71117;52.352;4.808;2024-03-02T07:13:07;100094.94;;;5.90;92.81
81704;BME280;71117;52.352;4.808;2024-03-02T07:15:35;100093.22;;;5.90;91.54
81704;BME280;71117;52.352;4.808;2024-03-02T07:18:32;100094.28;;;5.97;91.80
81704;BME280;71117;52.352;4.808;2024-03-02T07:21:06;100102.09;;;5.95;91.04
81704;BME280;71117;52.352;4.808;2024-03-02T07:23:32;100086.47;;;6.00;90.53
81704;BME280;71117;52.352;4.808;2024-03-02T07:25:57;100097.94;;;6.05;90.29
81704;BME280;71117;52.352;4.808;2024-03-02T07:28:25;100092.69;;;6.03;90.22
81704;BME280;71117;52.352;4.808;2024-03-02T07:33:26;100111.91;;;6.04;88.78
81704;BME280;71117;52.352;4.808;2024-03-02T07:35:51;100099.63;;;6.01;89.24
81704;BME280;71117;52.352;4.808;2024-03-02T07:38:16;100108.28;;;5.99;88.77
81704;BME280;71117;52.352;4.808;2024-03-02T07:40:42;100120.38;;;5.94;88.26
81704;BME280;71117;52.352;4.808;2024-03-02T07:43:07;100127.44;;;5.96;88.88
81704;BME280;71117;52.352;4.808;2024-03-02T07:45:33;100134.59;;;6.03;88.81
81704;BME280;71117;52.352;4.808;2024-03-02T07:48:01;100125.25;;;6.15;88.04
81704;BME280;71117;52.352;4.808;2024-03-02T07:50:26;100136.78;;;6.21;87.50
81704;BME280;71117;52.352;4.808;2024-03-02T07:52:52;100128.25;;;6.30;86.79
81704;BME280;71117;52.352;4.808;2024-03-02T07:55:17;100132.66;;;6.32;87.02
81704;BME280;71117;52.352;4.808;2024-03-02T07:57:50;100139.75;;;6.36;87.00
81704;BME280;71117;52.352;4.808;2024-03-02T08:00:16;100128.25;;;6.30;86.62
81704;BME280;71117;52.352;4.808;2024-03-02T08:02:41;100134.41;;;6.32;86.08
81704;BME280;71117;52.352;4.808;2024-03-02T08:05:07;100132.13;;;6.46;86.16
81704;BME280;71117;52.352;4.808;2024-03-02T08:07:33;100135.94;;;6.61;85.40
81704;BME280;71117;52.352;4.808;2024-03-02T08:09:59;100134.47;;;6.74;84.89
81704;BME280;71117;52.352;4.808;2024-03-02T08:12:26;100135.28;;;6.72;84.05
81704;BME280;71117;52.352;4.808;2024-03-02T08:14:52;100131.78;;;6.71;84.41
81704;BME280;71117;52.352;4.808;2024-03-02T08:17:17;100136.06;;;6.68;84.19
81704;BME280;71117;52.352;4.808;2024-03-02T08:19:43;100137.91;;;6.72;83.29
81704;BME280;71117;52.352;4.808;2024-03-02T08:22:09;100125.63;;;6.69;83.28
81704;BME280;71117;52.352;4.808;2024-03-02T08:24:35;100145.72;;;6.69;84.20
81704;BME280;71117;52.352;4.808;2024-03-02T08:27:01;100138.00;;;6.75;84.38
81704;BME280;71117;52.352;4.808;2024-03-02T08:29:26;100126.63;;;6.74;84.04
81704;BME280;71117;52.352;4.808;2024-03-02T08:31:51;100124.13;;;6.80;84.43
81704;BME280;71117;52.352;4.808;2024-03-02T08:34:17;100126.84;;;6.85;84.16
81704;BME280;71117;52.352;4.808;2024-03-02T08:36:42;100117.28;;;6.90;83.33
81704;BME280;71117;52.352;4.808;2024-03-02T08:39:09;100134.75;;;6.88;83.35
81704;BME280;71117;52.352;4.808;2024-03-02T08:41:41;100123.59;;;6.97;83.11
81704;BME280;71117;52.352;4.808;2024-03-02T08:44:08;100107.13;;;7.05;83.34
81704;BME280;71117;52.352;4.808;2024-03-02T08:46:34;100125.59;;;7.10;83.50
81704;BME280;71117;52.352;4.808;2024-03-02T08:48:59;100114.31;;;7.14;82.69
81704;BME280;71117;52.352;4.808;2024-03-02T08:51:25;100116.03;;;7.13;81.82
81704;BME280;71117;52.352;4.808;2024-03-02T08:53:50;100104.91;;;7.27;83.60
81704;BME280;71117;52.352;4.808;2024-03-02T08:56:15;100119.91;;;7.32;82.71
81704;BME280;71117;52.352;4.808;2024-03-02T08:58:41;100113.88;;;7.38;82.53
81704;BME280;71117;52.352;4.808;2024-03-02T09:01:06;100128.84;;;7.43;81.59
81704;BME280;71117;52.352;4.808;2024-03-02T09:03:33;100139.38;;;7.43;80.19
81704;BME280;71117;52.352;4.808;2024-03-02T09:05:59;100140.34;;;7.50;80.19
81704;BME280;71117;52.352;4.808;2024-03-02T09:08:24;100143.28;;;7.65;81.00
81704;BME280;71117;52.352;4.808;2024-03-02T09:10:49;100140.63;;;7.64;79.45
81704;BME280;71117;52.352;4.808;2024-03-02T09:13:15;100135.56;;;7.75;79.25
81704;BME280;71117;52.352;4.808;2024-03-02T09:15:40;100133.94;;;7.83;78.84
81704;BME280;71117;52.352;4.808;2024-03-02T09:18:06;100138.31;;;7.82;78.38
81704;BME280;71117;52.352;4.808;2024-03-02T09:20:32;100146.28;;;7.87;78.45
81704;BME280;71117;52.352;4.808;2024-03-02T09:22:57;100141.16;;;7.96;77.70
81704;BME280;71117;52.352;4.808;2024-03-02T09:25:22;100135.06;;;7.97;77.09
81704;BME280;71117;52.352;4.808;2024-03-02T09:27:48;100134.31;;;8.07;76.78
81704;BME280;71117;52.352;4.808;2024-03-02T09:30:13;100140.72;;;8.25;76.72
81704;BME280;71117;52.352;4.808;2024-03-02T09:32:39;100145.16;;;8.26;76.53
81704;BME280;71117;52.352;4.808;2024-03-02T09:35:04;100149.56;;;8.27;74.80
81704;BME280;71117;52.352;4.808;2024-03-02T09:37:30;100142.75;;;8.38;74.96
81704;BME280;71117;52.352;4.808;2024-03-02T09:39:55;100138.69;;;8.63;75.25
81704;BME280;71117;52.352;4.808;2024-03-02T09:42:21;100137.91;;;8.67;74.11
81704;BME280;71117;52.352;4.808;2024-03-02T09:44:47;100147.84;;;8.91;73.09
81704;BME280;71117;52.352;4.808;2024-03-02T09:47:13;100148.13;;;9.14;74.06
81704;BME280;71117;52.352;4.808;2024-03-02T09:49:38;100143.91;;;9.26;72.18
81704;BME280;71117;52.352;4.808;2024-03-02T09:52:05;100147.31;;;9.16;71.70
81704;BME280;71117;52.352;4.808;2024-03-02T09:54:32;100149.25;;;9.34;72.28
81704;BME280;71117;52.352;4.808;2024-03-02T09:56:57;100136.16;;;9.42;70.97
81704;BME280;71117;52.352;4.808;2024-03-02T09:59:22;100130.88;;;9.37;70.37
81704;BME280;71117;52.352;4.808;2024-03-02T10:02:03;100139.91;;;9.62;69.94
81704;BME280;71117;52.352;4.808;2024-03-02T10:04:31;100142.66;;;9.76;68.88
81704;BME280;71117;52.352;4.808;2024-03-02T10:09:39;100137.75;;;10.16;68.90
81704;BME280;71117;52.352;4.808;2024-03-02T10:12:06;100148.28;;;10.14;67.19
81704;BME280;71117;52.352;4.808;2024-03-02T10:14:32;100160.88;;;10.44;67.66
81704;BME280;71117;52.352;4.808;2024-03-02T10:17:24;100155.66;;;10.56;66.32
81704;BME280;71117;52.352;4.808;2024-03-02T10:19:56;100146.00;;;10.63;65.17
81704;BME280;71117;52.352;4.808;2024-03-02T10:22:23;100141.69;;;10.82;65.27
81704;BME280;71117;52.352;4.808;2024-03-02T10:24:49;100144.47;;;11.11;64.32
81704;BME280;71117;52.352;4.808;2024-03-02T10:27:19;100149.66;;;10.83;62.55
81704;BME280;71117;52.352;4.808;2024-03-02T10:29:47;100149.72;;;10.96;63.29
81704;BME280;71117;52.352;4.808;2024-03-02T10:32:13;100155.91;;;11.10;62.34
81704;BME280;71117;52.352;4.808;2024-03-02T10:34:42;100154.19;;;11.15;62.12
81704;BME280;71117;52.352;4.808;2024-03-02T10:37:10;100152.44;;;11.16;61.82
81704;BME280;71117;52.352;4.808;2024-03-02T10:39:36;100146.38;;;11.46;60.87
81704;BME280;71117;52.352;4.808;2024-03-02T10:42:05;100123.56;;;12.18;58.82
81704;BME280;71117;52.352;4.808;2024-03-02T10:44:31;100124.44;;;12.20;57.83
81704;BME280;71117;52.352;4.808;2024-03-02T10:47:00;100133.22;;;12.39;56.67
81704;BME280;71117;52.352;4.808;2024-03-02T10:49:27;100128.75;;;12.76;55.66
81704;BME280;71117;52.352;4.808;2024-03-02T10:51:56;100125.03;;;13.20;55.13
81704;BME280;71117;52.352;4.808;2024-03-02T10:54:21;100127.75;;;13.08;53.89
81704;BME280;71117;52.352;4.808;2024-03-02T10:56:53;100133.06;;;13.00;53.88
81704;BME280;71117;52.352;4.808;2024-03-02T10:59:33;100126.09;;;14.26;50.98
81704;BME280;71117;52.352;4.808;2024-03-02T11:02:00;100111.34;;;14.87;49.73
81704;BME280;71117;52.352;4.808;2024-03-02T11:04:27;100122.91;;;14.81;49.34
81704;BME280;71117;52.352;4.808;2024-03-02T11:07:04;100119.84;;;15.15;47.28
81704;BME280;71117;52.352;4.808;2024-03-02T11:09:35;100108.25;;;15.21;48.13
81704;BME280;71117;52.352;4.808;2024-03-02T11:14:50;100109.78;;;15.37;47.10
81704;BME280;71117;52.352;4.808;2024-03-02T11:17:18;100107.44;;;16.31;45.35
81704;BME280;71117;52.352;4.808;2024-03-02T11:19:43;100112.81;;;15.11;46.43
81704;BME280;71117;52.352;4.808;2024-03-02T11:22:10;100113.47;;;15.90;44.47
81704;BME280;71117;52.352;4.808;2024-03-02T11:24:36;100111.34;;;16.12;45.40
81704;BME280;71117;52.352;4.808;2024-03-02T11:27:03;100119.56;;;15.97;44.55
81704;BME280;71117;52.352;4.808;2024-03-02T11:34:41;100098.56;;;18.35;40.48
81704;BME280;71117;52.352;4.808;2024-03-02T11:37:15;100103.97;;;17.19;39.07
81704;BME280;71117;52.352;4.808;2024-03-02T11:39:41;100110.50;;;17.44;39.96
81704;BME280;71117;52.352;4.808;2024-03-02T11:42:07;100117.78;;;17.78;39.61
81704;BME280;71117;52.352;4.808;2024-03-02T11:44:38;100110.31;;;17.54;38.00
81704;BME280;71117;52.352;4.808;2024-03-02T11:47:06;100108.78;;;17.82;38.10
81704;BME280;71117;52.352;4.808;2024-03-02T11:49:44;100114.09;;;17.43;38.82
81704;BME280;71117;52.352;4.808;2024-03-02T11:52:13;100097.47;;;18.42;37.71
81704;BME280;71117;52.352;4.808;2024-03-02T11:54:41;100099.47;;;18.34;37.00
81704;BME280;71117;52.352;4.808;2024-03-02T11:57:18;100094.59;;;18.50;38.42
81704;BME280;71117;52.352;4.808;2024-03-02T11:59:44;100102.22;;;17.97;36.73
81704;BME280;71117;52.352;4.808;2024-03-02T12:02:18;100105.59;;;17.65;37.81
81704;BME280;71117;52.352;4.808;2024-03-02T12:04:44;100086.16;;;18.65;37.06
81704;BME280;71117;52.352;4.808;2024-03-02T12:07:10;100093.06;;;18.40;36.98
81704;BME280;71117;52.352;4.808;2024-03-02T12:09:36;100088.75;;;18.34;36.46
81704;BME280;71117;52.352;4.808;2024-03-02T12:12:06;100078.63;;;18.81;35.90
81704;BME280;71117;52.352;4.808;2024-03-02T12:14:32;100079.31;;;19.17;34.83
81704;BME280;71117;52.352;4.808;2024-03-02T12:16:58;100070.09;;;18.65;36.71
81704;BME280;71117;52.352;4.808;2024-03-02T12:19:26;100071.41;;;18.16;36.35
81704;BME280;71117;52.352;4.808;2024-03-02T12:22:08;100062.66;;;19.37;35.35
81704;BME280;71117;52.352;4.808;2024-03-02T12:24:33;100067.75;;;20.54;34.39
81704;BME280;71117;52.352;4.808;2024-03-02T12:26:59;100068.44;;;20.59;32.07
81704;BME280;71117;52.352;4.808;2024-03-02T12:29:24;100060.06;;;19.90;33.54
81704;BME280;71117;52.352;4.808;2024-03-02T12:31:51;100060.44;;;19.79;33.96
81704;BME280;71117;52.352;4.808;2024-03-02T12:34:17;100058.84;;;19.44;33.47
81704;BME280;71117;52.352;4.808;2024-03-02T12:36:43;100050.69;;;19.49;34.68
81704;BME280;71117;52.352;4.808;2024-03-02T12:39:13;100054.34;;;18.55;32.76
81704;BME280;71117;52.352;4.808;2024-03-02T12:41:38;100052.97;;;18.40;33.91
81704;BME280;71117;52.352;4.808;2024-03-02T12:44:05;100043.41;;;18.64;34.65
81704;BME280;71117;52.352;4.808;2024-03-02T12:46:34;100044.72;;;19.11;33.23
81704;BME280;71117;52.352;4.808;2024-03-02T12:49:09;100040.47;;;20.66;34.67
81704;BME280;71117;52.352;4.808;2024-03-02T12:51:36;100035.19;;;20.88;31.57
81704;BME280;71117;52.352;4.808;2024-03-02T12:54:02;100035.22;;;19.57;33.27
81704;BME280;71117;52.352;4.808;2024-03-02T12:56:29;100039.47;;;19.66;32.86
81704;BME280;71117;52.352;4.808;2024-03-02T12:58:55;100041.09;;;20.23;32.57
81704;BME280;71117;52.352;4.808;2024-03-02T13:01:20;100040.09;;;20.00;33.12
81704;BME280;71117;52.352;4.808;2024-03-02T13:03:48;100038.84;;;20.35;31.54
81704;BME280;71117;52.352;4.808;2024-03-02T13:06:14;100038.59;;;20.68;31.04
81704;BME280;71117;52.352;4.808;2024-03-02T13:08:40;100050.56;;;20.83;30.34
81704;BME280;71117;52.352;4.808;2024-03-02T13:11:06;100046.00;;;19.84;31.26
81704;BME280;71117;52.352;4.808;2024-03-02T13:13:32;100047.09;;;19.78;31.63
81704;BME280;71117;52.352;4.808;2024-03-02T13:15:57;100038.34;;;20.24;31.36